sensor_id;sensor_type;location;lat;lon;timestamp;P1;durP1;ratioP1;P2;durP2;ratioP2
86011;SDS011;76591;42.170;27.850;2024-02-28T00:02:11;24.23;;;7.83;;
86011;SDS011;76591;42.170;27.850;2024-02-28T00:04:37;27.97;;;10.20;;
86011;SDS011;76591;42.170;27.850;2024-02-28T00:07:05;25.97;;;9.63;;
86011;SDS011;76591;42.170;27.850;2024-02-28T00:09:31;25.03;;;8.00;;
86011;SDS011;76591;42.170;27.850;2024-02-28T00:11:56;27.43;;;8.83;;
86011;SDS011;76591;42.170;27.850;2024-02-28T00:14:22;19.70;;;7.63;;
86011;SDS011;76591;42.170;27.850;2024-02-28T00:16:47;22.60;;;7.53;;
86011;SDS011;76591;42.170;27.850;2024-02-28T00:19:13;14.97;;;6.87;;
86011;SDS011;76591;42.170;27.850;2024-02-28T00:21:39;16.70;;;5.97;;
86011;SDS011;76591;42.170;27.850;2024-02-28T00:24:05;14.40;;;5.13;;
86011;SDS011;76591;42.170;27.850;2024-02-28T00:26:31;16.23;;;5.13;;
86011;SDS011;76591;42.170;27.850;2024-02-28T00:28:57;11.37;;;4.93;;
86011;SDS011;76591;42.170;27.850;2024-02-28T00:31:23;11.87;;;5.20;;
86011;SDS011;76591;42.170;27.850;2024-02-28T00:33:48;12.10;;;4.17;;
86011;SDS011;76591;42.170;27.850;2024-02-28T00:36:14;18.10;;;6.13;;
86011;SDS011;76591;42.170;27.850;2024-02-28T00:38:42;20.10;;;7.30;;
86011;SDS011;76591;42.170;27.850;2024-02-28T00:41:08;17.77;;;5.90;;
86011;SDS011;76591;42.170;27.850;2024-02-28T00:43:34;27.00;;;8.27;;
86011;SDS011;76591;42.170;27.850;2024-02-28T00:46:00;13.93;;;5.50;;
86011;SDS011;76591;42.170;27.850;2024-02-28T00:48:25;23.63;;;8.03;;
86011;SDS011;76591;42.170;27.850;2024-02-28T00:50:51;37.37;;;13.07;;
86011;SDS011;76591;42.170;27.850;2024-02-28T00:53:18;41.90;;;15.17;;
86011;SDS011;76591;42.170;27.850;2024-02-28T00:55:43;32.23;;;11.60;;
86011;SDS011;76591;42.170;27.850;2024-02-28T00:58:10;29.97;;;11.97;;
86011;SDS011;76591;42.170;27.850;2024-02-28T01:00:35;34.33;;;11.13;;
86011;SDS011;76591;42.170;27.850;2024-02-28T01:03:01;23.23;;;8.40;;
86011;SDS011;76591;42.170;27.850;2024-02-28T01:05:30;13.17;;;6.50;;
86011;SDS011;76591;42.170;27.850;2024-02-28T01:07:56;17.77;;;6.17;;
86011;SDS011;76591;42.170;27.850;2024-02-28T01:10:22;16.00;;;5.97;;
86011;SDS011;76591;42.170;27.850;2024-02-28T01:12:48;14.97;;;5.30;;
86011;SDS011;76591;42.170;27.850;2024-02-28T01:15:14;10.07;;;5.10;;
86011;SDS011;76591;42.170;27.850;2024-02-28T01:17:39;14.13;;;4.97;;
86011;SDS011;76591;42.170;27.850;2024-02-28T01:20:06;13.67;;;5.03;;
86011;SDS011;76591;42.170;27.850;2024-02-28T01:22:33;9.33;;;4.90;;
86011;SDS011;76591;42.170;27.850;2024-02-28T01:25:00;9.80;;;4.93;;
86011;SDS011;76591;42.170;27.850;2024-02-28T01:27:28;10.90;;;4.73;;
86011;SDS011;76591;42.170;27.850;2024-02-28T01:29:53;11.37;;;4.70;;
86011;SDS011;76591;42.170;27.850;2024-02-28T01:32:19;13.60;;;5.03;;
86011;SDS011;76591;42.170;27.850;2024-02-28T01:34:45;13.93;;;5.23;;
86011;SDS011;76591;42.170;27.850;2024-02-28T01:37:11;17.47;;;7.13;;
86011;SDS011;76591;42.170;27.850;2024-02-28T01:39:37;28.00;;;10.13;;
86011;SDS011;76591;42.170;27.850;2024-02-28T01:42:02;17.23;;;7.03;;
86011;SDS011;76591;42.170;27.850;2024-02-28T01:44:28;9.43;;;5.23;;
86011;SDS011;76591;42.170;27.850;2024-02-28T01:46:54;11.53;;;5.23;;
86011;SDS011;76591;42.170;27.850;2024-02-28T01:49:22;20.30;;;5.67;;
86011;SDS011;76591;42.170;27.850;2024-02-28T01:51:48;12.57;;;5.47;;
86011;SDS011;76591;42.170;27.850;2024-02-28T01:54:15;13.50;;;6.27;;
86011;SDS011;76591;42.170;27.850;2024-02-28T01:56:41;15.53;;;6.67;;
86011;SDS011;76591;42.170;27.850;2024-02-28T01:59:09;23.00;;;8.67;;
86011;SDS011;76591;42.170;27.850;2024-02-28T02:01:36;23.10;;;9.27;;
86011;SDS011;76591;42.170;27.850;2024-02-28T02:04:03;16.90;;;6.70;;
86011;SDS011;76591;42.170;27.850;2024-02-28T02:06:28;18.33;;;6.47;;
86011;SDS011;76591;42.170;27.850;2024-02-28T02:08:54;17.50;;;7.17;;
86011;SDS011;76591;42.170;27.850;2024-02-28T02:11:21;12.67;;;6.03;;
86011;SDS011;76591;42.170;27.850;2024-02-28T02:13:50;15.93;;;5.23;;
86011;SDS011;76591;42.170;27.850;2024-02-28T02:16:18;16.83;;;5.97;;
86011;SDS011;76591;42.170;27.850;2024-02-28T02:18:46;14.97;;;6.80;;
86011;SDS011;76591;42.170;27.850;2024-02-28T02:21:13;14.57;;;6.40;;
86011;SDS011;76591;42.170;27.850;2024-02-28T02:23:42;14.20;;;6.23;;
86011;SDS011;76591;42.170;27.850;2024-02-28T02:26:08;20.93;;;6.07;;
86011;SDS011;76591;42.170;27.850;2024-02-28T02:28:33;13.63;;;6.00;;
86011;SDS011;76591;42.170;27.850;2024-02-28T02:30:59;10.03;;;5.23;;
86011;SDS011;76591;42.170;27.850;2024-02-28T02:33:25;19.53;;;7.07;;
86011;SDS011;76591;42.170;27.850;2024-02-28T02:35:51;22.13;;;6.77;;
86011;SDS011;76591;42.170;27.850;2024-02-28T02:38:18;16.23;;;6.67;;
86011;SDS011;76591;42.170;27.850;2024-02-28T02:40:44;13.57;;;6.20;;
86011;SDS011;76591;42.170;27.850;2024-02-28T02:43:13;11.37;;;5.63;;
86011;SDS011;76591;42.170;27.850;2024-02-28T02:45:39;13.73;;;3.53;;
86011;SDS011;76591;42.170;27.850;2024-02-28T02:48:05;10.00;;;4.37;;
86011;SDS011;76591;42.170;27.850;2024-02-28T02:50:30;11.43;;;3.70;;
86011;SDS011;76591;42.170;27.850;2024-02-28T02:52:56;10.77;;;4.27;;
86011;SDS011;76591;42.170;27.850;2024-02-28T02:55:22;6.43;;;3.33;;
86011;SDS011;76591;42.170;27.850;2024-02-28T02:57:47;7.90;;;4.43;;
86011;SDS011;76591;42.170;27.850;2024-02-28T03:00:13;11.73;;;3.93;;
86011;SDS011;76591;42.170;27.850;2024-02-28T03:02:39;13.50;;;4.60;;
86011;SDS011;76591;42.170;27.850;2024-02-28T03:05:05;11.13;;;4.20;;
86011;SDS011;76591;42.170;27.850;2024-02-28T03:07:31;7.27;;;3.50;;
86011;SDS011;76591;42.170;27.850;2024-02-28T03:09:57;10.07;;;3.07;;
86011;SDS011;76591;42.170;27.850;2024-02-28T03:12:23;6.23;;;3.30;;
86011;SDS011;76591;42.170;27.850;2024-02-28T03:14:49;10.37;;;3.70;;
86011;SDS011;76591;42.170;27.850;2024-02-28T03:17:14;9.33;;;3.70;;
86011;SDS011;76591;42.170;27.850;2024-02-28T03:19:40;13.80;;;3.97;;
86011;SDS011;76591;42.170;27.850;2024-02-28T03:22:07;14.47;;;4.33;;
86011;SDS011;76591;42.170;27.850;2024-02-28T03:24:32;7.90;;;4.00;;
86011;SDS011;76591;42.170;27.850;2024-02-28T03:27:01;11.27;;;4.23;;
86011;SDS011;76591;42.170;27.850;2024-02-28T03:29:27;10.70;;;4.13;;
86011;SDS011;76591;42.170;27.850;2024-02-28T03:31:53;12.30;;;5.33;;
86011;SDS011;76591;42.170;27.850;2024-02-28T03:34:19;7.60;;;4.37;;
86011;SDS011;76591;42.170;27.850;2024-02-28T03:36:44;9.40;;;4.37;;
86011;SDS011;76591;42.170;27.850;2024-02-28T03:39:11;9.97;;;5.80;;
86011;SDS011;76591;42.170;27.850;2024-02-28T03:41:36;15.93;;;6.83;;
86011;SDS011;76591;42.170;27.850;2024-02-28T03:44:02;12.30;;;6.67;;
86011;SDS011;76591;42.170;27.850;2024-02-28T03:46:27;15.97;;;7.77;;
86011;SDS011;76591;42.170;27.850;2024-02-28T03:48:53;13.63;;;6.03;;
86011;SDS011;76591;42.170;27.850;2024-02-28T03:51:19;18.17;;;6.77;;
86011;SDS011;76591;42.170;27.850;2024-02-28T03:53:44;17.40;;;6.63;;
86011;SDS011;76591;42.170;27.850;2024-02-28T03:56:10;12.40;;;6.20;;
86011;SDS011;76591;42.170;27.850;2024-02-28T03:58:36;10.27;;;5.00;;
86011;SDS011;76591;42.170;27.850;2024-02-28T04:01:02;19.60;;;8.80;;
86011;SDS011;76591;42.170;27.850;2024-02-28T04:03:28;23.40;;;9.37;;
86011;SDS011;76591;42.170;27.850;2024-02-28T04:05:54;39.33;;;12.47;;
86011;SDS011;76591;42.170;27.850;2024-02-28T04:08:20;42.43;;;14.47;;
86011;SDS011;76591;42.170;27.850;2024-02-28T04:10:45;53.90;;;16.17;;
86011;SDS011;76591;42.170;27.850;2024-02-28T04:13:11;44.63;;;18.30;;
86011;SDS011;76591;42.170;27.850;2024-02-28T04:15:37;63.03;;;20.60;;
86011;SDS011;76591;42.170;27.850;2024-02-28T04:18:03;60.37;;;19.47;;
86011;SDS011;76591;42.170;27.850;2024-02-28T04:20:30;40.83;;;15.07;;
86011;SDS011;76591;42.170;27.850;2024-02-28T04:22:55;29.23;;;13.53;;
86011;SDS011;76591;42.170;27.850;2024-02-28T04:25:21;30.50;;;12.17;;
86011;SDS011;76591;42.170;27.850;2024-02-28T04:27:46;24.37;;;10.40;;
86011;SDS011;76591;42.170;27.850;2024-02-28T04:30:12;18.97;;;8.80;;
86011;SDS011;76591;42.170;27.850;2024-02-28T04:32:38;15.40;;;5.20;;
86011;SDS011;76591;42.170;27.850;2024-02-28T04:35:04;10.43;;;4.90;;
86011;SDS011;76591;42.170;27.850;2024-02-28T04:37:29;23.53;;;7.90;;
86011;SDS011;76591;42.170;27.850;2024-02-28T04:39:55;29.77;;;12.37;;
86011;SDS011;76591;42.170;27.850;2024-02-28T04:42:21;43.63;;;15.40;;
86011;SDS011;76591;42.170;27.850;2024-02-28T04:44:46;41.40;;;16.00;;
86011;SDS011;76591;42.170;27.850;2024-02-28T04:47:12;39.63;;;14.30;;
86011;SDS011;76591;42.170;27.850;2024-02-28T04:49:38;37.47;;;14.87;;
86011;SDS011;76591;42.170;27.850;2024-02-28T04:52:04;38.77;;;14.27;;
86011;SDS011;76591;42.170;27.850;2024-02-28T04:54:31;28.30;;;13.17;;
86011;SDS011;76591;42.170;27.850;2024-02-28T04:56:56;39.57;;;15.87;;
86011;SDS011;76591;42.170;27.850;2024-02-28T04:59:22;37.63;;;16.30;;
86011;SDS011;76591;42.170;27.850;2024-02-28T05:01:47;46.00;;;16.37;;
86011;SDS011;76591;42.170;27.850;2024-02-28T05:04:13;42.70;;;17.03;;
86011;SDS011;76591;42.170;27.850;2024-02-28T05:06:39;44.60;;;15.67;;
86011;SDS011;76591;42.170;27.850;2024-02-28T05:09:05;42.33;;;15.63;;
86011;SDS011;76591;42.170;27.850;2024-02-28T05:11:30;29.47;;;12.43;;
86011;SDS011;76591;42.170;27.850;2024-02-28T05:13:57;62.23;;;19.37;;
86011;SDS011;76591;42.170;27.850;2024-02-28T05:16:23;49.13;;;20.53;;
86011;SDS011;76591;42.170;27.850;2024-02-28T05:18:48;42.60;;;15.00;;
86011;SDS011;76591;42.170;27.850;2024-02-28T05:21:14;32.50;;;12.03;;
86011;SDS011;76591;42.170;27.850;2024-02-28T05:23:40;21.17;;;8.20;;
86011;SDS011;76591;42.170;27.850;2024-02-28T05:26:05;42.57;;;10.33;;
86011;SDS011;76591;42.170;27.850;2024-02-28T05:28:35;24.33;;;8.63;;
86011;SDS011;76591;42.170;27.850;2024-02-28T05:33:56;12.83;;;5.17;;
86011;SDS011;76591;42.170;27.850;2024-02-28T05:36:22;9.00;;;5.30;;
86011;SDS011;76591;42.170;27.850;2024-02-28T05:38:49;50.90;;;18.83;;
86011;SDS011;76591;42.170;27.850;2024-02-28T05:41:16;87.67;;;33.33;;
86011;SDS011;76591;42.170;27.850;2024-02-28T05:43:42;44.77;;;19.10;;
86011;SDS011;76591;42.170;27.850;2024-02-28T05:46:08;18.33;;;7.20;;
86011;SDS011;76591;42.170;27.850;2024-02-28T05:48:34;11.27;;;6.37;;
86011;SDS011;76591;42.170;27.850;2024-02-28T05:51:03;6.53;;;3.50;;
86011;SDS011;76591;42.170;27.850;2024-02-28T05:53:30;7.05;;;2.53;;
86011;SDS011;76591;42.170;27.850;2024-02-28T05:56:01;3.37;;;2.50;;
86011;SDS011;76591;42.170;27.850;2024-02-28T05:58:30;5.22;;;2.22;;
86011;SDS011;76591;42.170;27.850;2024-02-28T06:00:59;4.45;;;2.00;;
86011;SDS011;76591;42.170;27.850;2024-02-28T06:03:25;2.63;;;1.77;;
86011;SDS011;76591;42.170;27.850;2024-02-28T06:05:50;3.17;;;1.45;;
86011;SDS011;76591;42.170;27.850;2024-02-28T06:08:17;15.90;;;3.28;;
86011;SDS011;76591;42.170;27.850;2024-02-28T06:10:42;4.20;;;2.55;;
86011;SDS011;76591;42.170;27.850;2024-02-28T06:13:08;8.70;;;2.85;;
86011;SDS011;76591;42.170;27.850;2024-02-28T06:15:34;3.75;;;1.83;;
86011;SDS011;76591;42.170;27.850;2024-02-28T06:18:00;10.60;;;2.88;;
86011;SDS011;76591;42.170;27.850;2024-02-28T06:20:26;8.30;;;3.20;;
86011;SDS011;76591;42.170;27.850;2024-02-28T06:22:52;7.53;;;2.88;;
86011;SDS011;76591;42.170;27.850;2024-02-28T06:25:17;10.80;;;2.75;;
86011;SDS011;76591;42.170;27.850;2024-02-28T06:27:45;6.72;;;2.60;;
86011;SDS011;76591;42.170;27.850;2024-02-28T06:30:11;16.55;;;4.90;;
86011;SDS011;76591;42.170;27.850;2024-02-28T06:32:42;5.75;;;2.70;;
86011;SDS011;76591;42.170;27.850;2024-02-28T06:35:08;7.43;;;2.80;;
86011;SDS011;76591;42.170;27.850;2024-02-28T06:37:34;9.82;;;3.03;;
86011;SDS011;76591;42.170;27.850;2024-02-28T06:40:00;18.60;;;4.47;;
86011;SDS011;76591;42.170;27.850;2024-02-28T06:42:25;13.93;;;4.28;;
86011;SDS011;76591;42.170;27.850;2024-02-28T06:44:51;13.32;;;5.28;;
86011;SDS011;76591;42.170;27.850;2024-02-28T06:47:17;8.25;;;3.03;;
86011;SDS011;76591;42.170;27.850;2024-02-28T06:49:43;5.65;;;2.83;;
86011;SDS011;76591;42.170;27.850;2024-02-28T06:52:09;13.38;;;3.47;;
86011;SDS011;76591;42.170;27.850;2024-02-28T06:54:35;6.05;;;3.10;;
86011;SDS011;76591;42.170;27.850;2024-02-28T06:57:00;11.20;;;4.57;;
86011;SDS011;76591;42.170;27.850;2024-02-28T06:59:27;6.80;;;4.72;;
86011;SDS011;76591;42.170;27.850;2024-02-28T07:01:53;9.45;;;4.85;;
86011;SDS011;76591;42.170;27.850;2024-02-28T07:04:19;7.93;;;4.57;;
86011;SDS011;76591;42.170;27.850;2024-02-28T07:06:45;11.60;;;4.97;;
86011;SDS011;76591;42.170;27.850;2024-02-28T07:09:10;8.63;;;3.85;;
86011;SDS011;76591;42.170;27.850;2024-02-28T07:11:37;12.07;;;4.18;;
86011;SDS011;76591;42.170;27.850;2024-02-28T07:14:04;9.43;;;4.40;;
86011;SDS011;76591;42.170;27.850;2024-02-28T07:16:30;10.88;;;4.07;;
86011;SDS011;76591;42.170;27.850;2024-02-28T07:18:57;9.90;;;3.33;;
86011;SDS011;76591;42.170;27.850;2024-02-28T07:21:23;17.38;;;7.10;;
86011;SDS011;76591;42.170;27.850;2024-02-28T07:23:48;10.20;;;3.67;;
86011;SDS011;76591;42.170;27.850;2024-02-28T07:26:17;8.40;;;2.03;;
86011;SDS011;76591;42.170;27.850;2024-02-28T07:28:43;5.80;;;2.10;;
86011;SDS011;76591;42.170;27.850;2024-02-28T07:31:18;4.18;;;1.83;;
86011;SDS011;76591;42.170;27.850;2024-02-28T07:33:44;4.93;;;2.33;;
86011;SDS011;76591;42.170;27.850;2024-02-28T07:36:10;7.13;;;2.58;;
86011;SDS011;76591;42.170;27.850;2024-02-28T07:38:36;10.25;;;3.38;;
86011;SDS011;76591;42.170;27.850;2024-02-28T07:41:02;4.90;;;2.70;;
86011;SDS011;76591;42.170;27.850;2024-02-28T07:43:28;5.80;;;2.00;;
86011;SDS011;76591;42.170;27.850;2024-02-28T07:45:58;8.93;;;2.28;;
86011;SDS011;76591;42.170;27.850;2024-02-28T07:48:24;13.20;;;3.53;;
86011;SDS011;76591;42.170;27.850;2024-02-28T07:50:49;8.45;;;2.80;;
86011;SDS011;76591;42.170;27.850;2024-02-28T07:53:16;5.72;;;3.15;;
86011;SDS011;76591;42.170;27.850;2024-02-28T07:55:42;7.43;;;2.60;;
86011;SDS011;76591;42.170;27.850;2024-02-28T07:58:08;5.43;;;3.28;;
86011;SDS011;76591;42.170;27.850;2024-02-28T08:00:34;3.30;;;2.45;;
86011;SDS011;76591;42.170;27.850;2024-02-28T08:03:00;5.55;;;2.83;;
86011;SDS011;76591;42.170;27.850;2024-02-28T08:05:27;4.88;;;2.30;;
86011;SDS011;76591;42.170;27.850;2024-02-28T08:07:53;6.32;;;3.17;;
86011;SDS011;76591;42.170;27.850;2024-02-28T08:10:19;7.28;;;3.13;;
86011;SDS011;76591;42.170;27.850;2024-02-28T08:12:45;13.13;;;3.10;;
86011;SDS011;76591;42.170;27.850;2024-02-28T08:15:10;3.72;;;2.00;;
86011;SDS011;76591;42.170;27.850;2024-02-28T08:17:36;7.85;;;2.45;;
86011;SDS011;76591;42.170;27.850;2024-02-28T08:20:02;6.43;;;2.65;;
86011;SDS011;76591;42.170;27.850;2024-02-28T08:22:30;5.43;;;2.78;;
86011;SDS011;76591;42.170;27.850;2024-02-28T08:24:56;7.97;;;3.38;;
86011;SDS011;76591;42.170;27.850;2024-02-28T08:27:22;5.80;;;2.70;;
86011;SDS011;76591;42.170;27.850;2024-02-28T08:29:49;3.67;;;2.35;;
86011;SDS011;76591;42.170;27.850;2024-02-28T08:32:15;2.95;;;2.28;;
86011;SDS011;76591;42.170;27.850;2024-02-28T08:34:45;5.45;;;3.13;;
86011;SDS011;76591;42.170;27.850;2024-02-28T08:37:11;3.65;;;2.15;;
86011;SDS011;76591;42.170;27.850;2024-02-28T08:39:38;7.85;;;3.58;;
86011;SDS011;76591;42.170;27.850;2024-02-28T08:42:03;3.38;;;2.30;;
86011;SDS011;76591;42.170;27.850;2024-02-28T08:44:30;4.88;;;2.88;;
86011;SDS011;76591;42.170;27.850;2024-02-28T08:46:56;3.35;;;2.47;;
86011;SDS011;76591;42.170;27.850;2024-02-28T08:49:21;7.85;;;3.13;;
86011;SDS011;76591;42.170;27.850;2024-02-28T08:51:47;2.88;;;1.90;;
86011;SDS011;76591;42.170;27.850;2024-02-28T08:54:13;4.93;;;2.13;;
86011;SDS011;76591;42.170;27.850;2024-02-28T08:56:39;2.45;;;1.55;;
86011;SDS011;76591;42.170;27.850;2024-02-28T08:59:04;7.00;;;1.60;;
86011;SDS011;76591;42.170;27.850;2024-02-28T09:01:30;9.50;;;4.07;;
86011;SDS011;76591;42.170;27.850;2024-02-28T09:03:56;17.38;;;7.00;;
86011;SDS011;76591;42.170;27.850;2024-02-28T09:06:21;14.55;;;6.43;;
86011;SDS011;76591;42.170;27.850;2024-02-28T09:08:47;14.07;;;6.15;;
86011;SDS011;76591;42.170;27.850;2024-02-28T09:11:13;8.68;;;4.47;;
86011;SDS011;76591;42.170;27.850;2024-02-28T09:13:38;19.15;;;4.85;;
86011;SDS011;76591;42.170;27.850;2024-02-28T09:16:04;13.13;;;3.67;;
86011;SDS011;76591;42.170;27.850;2024-02-28T09:18:30;11.48;;;5.03;;
86011;SDS011;76591;42.170;27.850;2024-02-28T09:20:55;12.13;;;5.20;;
86011;SDS011;76591;42.170;27.850;2024-02-28T09:23:21;11.60;;;4.22;;
86011;SDS011;76591;42.170;27.850;2024-02-28T09:25:46;11.85;;;4.80;;
86011;SDS011;76591;42.170;27.850;2024-02-28T09:28:12;12.82;;;4.90;;
86011;SDS011;76591;42.170;27.850;2024-02-28T09:30:41;6.70;;;3.38;;
86011;SDS011;76591;42.170;27.850;2024-02-28T09:33:07;7.47;;;2.28;;
86011;SDS011;76591;42.170;27.850;2024-02-28T09:35:34;5.22;;;2.25;;
86011;SDS011;76591;42.170;27.850;2024-02-28T09:38:01;5.38;;;2.05;;
86011;SDS011;76591;42.170;27.850;2024-02-28T09:40:27;5.13;;;2.30;;
86011;SDS011;76591;42.170;27.850;2024-02-28T09:42:54;6.82;;;3.15;;
86011;SDS011;76591;42.170;27.850;2024-02-28T09:45:29;9.68;;;3.67;;
86011;SDS011;76591;42.170;27.850;2024-02-28T09:47:56;10.82;;;3.10;;
86011;SDS011;76591;42.170;27.850;2024-02-28T09:50:23;17.70;;;3.40;;
86011;SDS011;76591;42.170;27.850;2024-02-28T09:52:51;10.13;;;2.38;;
86011;SDS011;76591;42.170;27.850;2024-02-28T09:55:16;5.80;;;2.15;;
86011;SDS011;76591;42.170;27.850;2024-02-28T09:57:42;6.13;;;2.53;;
86011;SDS011;76591;42.170;27.850;2024-02-28T10:00:12;9.82;;;2.85;;
86011;SDS011;76591;42.170;27.850;2024-02-28T10:02:39;3.55;;;1.98;;
86011;SDS011;76591;42.170;27.850;2024-02-28T10:05:08;9.13;;;2.13;;
86011;SDS011;76591;42.170;27.850;2024-02-28T10:07:35;9.73;;;2.75;;
86011;SDS011;76591;42.170;27.850;2024-02-28T10:10:00;7.63;;;2.42;;
86011;SDS011;76591;42.170;27.850;2024-02-28T10:12:26;8.30;;;2.40;;
86011;SDS011;76591;42.170;27.850;2024-02-28T10:14:51;6.05;;;2.10;;
86011;SDS011;76591;42.170;27.850;2024-02-28T10:17:17;5.07;;;1.85;;
86011;SDS011;76591;42.170;27.850;2024-02-28T10:19:43;4.28;;;2.40;;
86011;SDS011;76591;42.170;27.850;2024-02-28T10:22:09;8.45;;;3.00;;
86011;SDS011;76591;42.170;27.850;2024-02-28T10:24:34;9.35;;;2.80;;
86011;SDS011;76591;42.170;27.850;2024-02-28T10:27:00;7.28;;;2.60;;
86011;SDS011;76591;42.170;27.850;2024-02-28T10:29:26;11.90;;;2.72;;
86011;SDS011;76591;42.170;27.850;2024-02-28T10:31:56;15.38;;;2.78;;
86011;SDS011;76591;42.170;27.850;2024-02-28T10:34:22;12.00;;;4.82;;
86011;SDS011;76591;42.170;27.850;2024-02-28T10:36:48;6.32;;;3.92;;
86011;SDS011;76591;42.170;27.850;2024-02-28T10:39:15;7.80;;;2.70;;
86011;SDS011;76591;42.170;27.850;2024-02-28T10:41:41;4.22;;;1.98;;
86011;SDS011;76591;42.170;27.850;2024-02-28T10:44:08;6.72;;;2.13;;
86011;SDS011;76591;42.170;27.850;2024-02-28T10:46:37;3.40;;;2.05;;
86011;SDS011;76591;42.170;27.850;2024-02-28T10:49:04;7.68;;;2.65;;
86011;SDS011;76591;42.170;27.850;2024-02-28T10:51:32;17.08;;;2.67;;
86011;SDS011;76591;42.170;27.850;2024-02-28T10:56:41;14.00;;;3.47;;
86011;SDS011;76591;42.170;27.850;2024-02-28T10:59:08;13.90;;;2.58;;
86011;SDS011;76591;42.170;27.850;2024-02-28T11:01:35;12.07;;;4.03;;
86011;SDS011;76591;42.170;27.850;2024-02-28T11:04:03;9.77;;;3.13;;
86011;SDS011;76591;42.170;27.850;2024-02-28T11:06:30;10.65;;;3.70;;
86011;SDS011;76591;42.170;27.850;2024-02-28T11:08:58;11.05;;;3.13;;
86011;SDS011;76591;42.170;27.850;2024-02-28T11:11:29;5.38;;;2.92;;
86011;SDS011;76591;42.170;27.850;2024-02-28T11:13:57;11.18;;;3.60;;
86011;SDS011;76591;42.170;27.850;2024-02-28T11:16:26;15.68;;;3.88;;
86011;SDS011;76591;42.170;27.850;2024-02-28T11:18:53;15.93;;;3.70;;
86011;SDS011;76591;42.170;27.850;2024-02-28T11:21:19;9.80;;;3.10;;
86011;SDS011;76591;42.170;27.850;2024-02-28T11:23:47;11.98;;;3.47;;
86011;SDS011;76591;42.170;27.850;2024-02-28T11:26:13;7.97;;;2.60;;
86011;SDS011;76591;42.170;27.850;2024-02-28T11:28:39;5.97;;;3.65;;
86011;SDS011;76591;42.170;27.850;2024-02-28T11:31:05;5.55;;;3.25;;
86011;SDS011;76591;42.170;27.850;2024-02-28T11:33:31;9.60;;;3.67;;
86011;SDS011;76591;42.170;27.850;2024-02-28T11:35:58;4.80;;;2.83;;
86011;SDS011;76591;42.170;27.850;2024-02-28T11:38:27;11.45;;;3.35;;
86011;SDS011;76591;42.170;27.850;2024-02-28T11:40:53;10.60;;;4.20;;
86011;SDS011;76591;42.170;27.850;2024-02-28T11:43:23;8.07;;;3.80;;
86011;SDS011;76591;42.170;27.850;2024-02-28T11:45:49;6.97;;;3.40;;
86011;SDS011;76591;42.170;27.850;2024-02-28T11:48:15;9.45;;;3.55;;
86011;SDS011;76591;42.170;27.850;2024-02-28T11:50:41;5.68;;;2.58;;
86011;SDS011;76591;42.170;27.850;2024-02-28T11:53:08;12.98;;;3.28;;
86011;SDS011;76591;42.170;27.850;2024-02-28T11:55:34;8.88;;;4.80;;
86011;SDS011;76591;42.170;27.850;2024-02-28T11:57:59;15.95;;;5.80;;
86011;SDS011;76591;42.170;27.850;2024-02-28T12:00:25;15.27;;;4.95;;
86011;SDS011;76591;42.170;27.850;2024-02-28T12:02:51;7.82;;;4.20;;
86011;SDS011;76591;42.170;27.850;2024-02-28T12:05:22;12.77;;;4.72;;
86011;SDS011;76591;42.170;27.850;2024-02-28T12:07:47;5.70;;;3.08;;
86011;SDS011;76591;42.170;27.850;2024-02-28T12:10:13;19.02;;;6.03;;
86011;SDS011;76591;42.170;27.850;2024-02-28T12:12:39;9.75;;;3.55;;
86011;SDS011;76591;42.170;27.850;2024-02-28T12:15:05;5.43;;;2.22;;
86011;SDS011;76591;42.170;27.850;2024-02-28T12:17:31;4.95;;;2.90;;
86011;SDS011;76591;42.170;27.850;2024-02-28T12:20:00;9.60;;;3.33;;
86011;SDS011;76591;42.170;27.850;2024-02-28T12:22:26;4.30;;;2.50;;
86011;SDS011;76591;42.170;27.850;2024-02-28T12:24:52;6.18;;;2.55;;
86011;SDS011;76591;42.170;27.850;2024-02-28T12:27:17;5.97;;;2.72;;
86011;SDS011;76591;42.170;27.850;2024-02-28T12:29:43;10.05;;;2.88;;
86011;SDS011;76591;42.170;27.850;2024-02-28T12:32:09;7.85;;;3.25;;
86011;SDS011;76591;42.170;27.850;2024-02-28T12:34:34;13.27;;;3.17;;
86011;SDS011;76591;42.170;27.850;2024-02-28T12:37:00;10.93;;;2.92;;
86011;SDS011;76591;42.170;27.850;2024-02-28T12:39:27;7.75;;;3.65;;
86011;SDS011;76591;42.170;27.850;2024-02-28T12:41:53;7.53;;;3.28;;
86011;SDS011;76591;42.170;27.850;2024-02-28T12:44:19;4.63;;;2.53;;
86011;SDS011;76591;42.170;27.850;2024-02-28T12:46:45;7.03;;;2.45;;
86011;SDS011;76591;42.170;27.850;2024-02-28T12:49:10;6.50;;;2.50;;
86011;SDS011;76591;42.170;27.850;2024-02-28T12:51:37;10.77;;;2.80;;
86011;SDS011;76591;42.170;27.850;2024-02-28T12:54:07;11.65;;;3.17;;
86011;SDS011;76591;42.170;27.850;2024-02-28T12:56:34;8.68;;;2.70;;
86011;SDS011;76591;42.170;27.850;2024-02-28T12:59:00;5.85;;;3.25;;
86011;SDS011;76591;42.170;27.850;2024-02-28T13:01:26;7.85;;;3.13;;
86011;SDS011;76591;42.170;27.850;2024-02-28T13:03:53;17.40;;;3.35;;
86011;SDS011;76591;42.170;27.850;2024-02-28T13:06:19;8.32;;;3.35;;
86011;SDS011;76591;42.170;27.850;2024-02-28T13:08:45;5.22;;;2.13;;
86011;SDS011;76591;42.170;27.850;2024-02-28T13:11:16;5.75;;;2.88;;
86011;SDS011;76591;42.170;27.850;2024-02-28T13:13:43;5.65;;;2.55;;
86011;SDS011;76591;42.170;27.850;2024-02-28T13:16:09;7.72;;;2.90;;
86011;SDS011;76591;42.170;27.850;2024-02-28T13:18:34;5.45;;;2.65;;
86011;SDS011;76591;42.170;27.850;2024-02-28T13:21:00;7.68;;;2.17;;
86011;SDS011;76591;42.170;27.850;2024-02-28T13:23:26;5.10;;;2.95;;
86011;SDS011;76591;42.170;27.850;2024-02-28T13:25:52;9.00;;;3.08;;
86011;SDS011;76591;42.170;27.850;2024-02-28T13:28:17;4.03;;;2.47;;
86011;SDS011;76591;42.170;27.850;2024-02-28T13:30:43;7.28;;;2.80;;
86011;SDS011;76591;42.170;27.850;2024-02-28T13:33:08;6.82;;;1.90;;
86011;SDS011;76591;42.170;27.850;2024-02-28T13:35:34;4.00;;;2.70;;
86011;SDS011;76591;42.170;27.850;2024-02-28T13:38:00;5.57;;;3.00;;
86011;SDS011;76591;42.170;27.850;2024-02-28T13:40:27;9.73;;;2.58;;
86011;SDS011;76591;42.170;27.850;2024-02-28T13:42:52;12.13;;;3.57;;
86011;SDS011;76591;42.170;27.850;2024-02-28T13:45:18;5.82;;;3.00;;
86011;SDS011;76591;42.170;27.850;2024-02-28T13:47:44;14.63;;;4.45;;
86011;SDS011;76591;42.170;27.850;2024-02-28T13:50:10;8.15;;;2.83;;
86011;SDS011;76591;42.170;27.850;2024-02-28T13:52:37;4.78;;;2.67;;
86011;SDS011;76591;42.170;27.850;2024-02-28T13:55:02;5.43;;;2.80;;
86011;SDS011;76591;42.170;27.850;2024-02-28T13:57:28;8.38;;;3.10;;
86011;SDS011;76591;42.170;27.850;2024-02-28T13:59:54;5.93;;;2.37;;
86011;SDS011;76591;42.170;27.850;2024-02-28T14:02:20;9.02;;;2.72;;
86011;SDS011;76591;42.170;27.850;2024-02-28T14:04:47;14.98;;;2.92;;
86011;SDS011;76591;42.170;27.850;2024-02-28T14:07:15;9.60;;;3.20;;
86011;SDS011;76591;42.170;27.850;2024-02-28T14:09:41;5.63;;;2.88;;
86011;SDS011;76591;42.170;27.850;2024-02-28T14:12:09;9.33;;;3.03;;
86011;SDS011;76591;42.170;27.850;2024-02-28T14:14:34;3.30;;;2.27;;
86011;SDS011;76591;42.170;27.850;2024-02-28T14:17:00;8.75;;;3.38;;
86011;SDS011;76591;42.170;27.850;2024-02-28T14:19:26;6.17;;;3.70;;
86011;SDS011;76591;42.170;27.850;2024-02-28T14:21:52;9.80;;;2.70;;
86011;SDS011;76591;42.170;27.850;2024-02-28T14:24:17;6.50;;;3.03;;
86011;SDS011;76591;42.170;27.850;2024-02-28T14:26:47;14.37;;;3.60;;